createdAt,value
2023-05-14T00:00:29.283Z,83.54
2023-05-14T00:04:32.273Z,84.04
2023-05-14T00:08:36.301Z,84.38
2023-05-14T00:12:38.900Z,85.08
2023-05-14T00:16:41.468Z,85.27
2023-05-14T00:20:44.383Z,85.63
2023-05-14T00:24:48.289Z,85.73
2023-05-14T00:28:50.834Z,86.05
2023-05-14T00:32:53.489Z,86.15
2023-05-14T00:36:56.097Z,86.23
2023-05-14T00:41:00.016Z,86.25
2023-05-14T00:45:02.616Z,86.16
2023-05-14T00:49:05.469Z,86.32
2023-05-14T00:53:10.336Z,86.37
2023-05-14T00:57:14.437Z,86.31
2023-05-14T01:01:18.184Z,86.57
2023-05-14T01:05:21.156Z,86.42
2023-05-14T01:09:30.572Z,86.08
2023-05-14T01:13:42.573Z,85.31
2023-05-14T01:18:07.682Z,85.26
2023-05-14T01:22:12.361Z,85.41
2023-05-14T01:26:14.944Z,84.81
2023-05-14T01:30:23.045Z,84.55
2023-05-14T01:34:29.393Z,84.63
2023-05-14T01:38:34.471Z,84.95
2023-05-14T01:42:37.423Z,85.00
2023-05-14T01:46:40.283Z,84.85
2023-05-14T01:50:42.999Z,85.19
2023-05-14T01:54:46.906Z,85.91
2023-05-14T01:58:49.465Z,85.87
2023-05-14T02:02:52.322Z,86.26
2023-05-14T02:06:54.993Z,86.18
2023-05-14T02:10:59.210Z,86.84
2023-05-14T02:15:02.065Z,86.75
2023-05-14T02:19:04.760Z,86.92
2023-05-14T02:23:07.509Z,86.25
2023-05-14T02:27:13.098Z,86.61
2023-05-14T02:31:17.605Z,86.55
2023-05-14T02:35:20.298Z,86.92
2023-05-14T02:39:22.927Z,86.67
2023-05-14T02:43:26.940Z,86.61
2023-05-14T02:47:29.573Z,86.61
2023-05-14T02:51:32.140Z,86.62
2023-05-14T02:55:34.716Z,86.90
2023-05-14T02:59:38.691Z,86.99
2023-05-14T03:03:41.911Z,87.27
2023-05-14T03:07:45.008Z,87.96
2023-05-14T03:11:47.711Z,88.86
2023-05-14T03:15:54.826Z,89.76
2023-05-14T03:19:57.666Z,89.84
2023-05-14T03:24:01.093Z,90.39
2023-05-14T03:28:04.216Z,90.30
2023-05-14T03:32:08.745Z,90.04
2023-05-14T03:36:11.344Z,89.78
2023-05-14T03:40:14.089Z,89.60
2023-05-14T03:44:16.690Z,89.42
2023-05-14T03:48:21.145Z,89.61
2023-05-14T03:52:23.800Z,89.42
2023-05-14T03:56:26.685Z,89.72
2023-05-14T04:00:29.446Z,90.36
2023-05-14T04:04:33.499Z,91.16
2023-05-14T04:08:36.257Z,91.34
2023-05-14T04:12:38.938Z,91.79
2023-05-14T04:16:41.575Z,91.82
2023-05-14T04:20:45.525Z,91.80
2023-05-14T04:24:48.142Z,91.46
2023-05-14T04:28:50.768Z,91.54
2023-05-14T04:32:53.596Z,91.56
2023-05-14T04:36:57.551Z,91.26
2023-05-14T04:41:00.287Z,90.64
2023-05-14T04:45:05.413Z,90.57
2023-05-14T04:49:08.113Z,90.21
2023-05-14T04:53:12.354Z,89.80
2023-05-14T04:57:14.927Z,89.45
2023-05-14T05:01:17.584Z,89.06
2023-05-14T05:05:20.657Z,88.85
2023-05-14T05:09:24.690Z,88.75
2023-05-14T05:13:27.348Z,88.38
2023-05-14T05:17:30.957Z,87.83
2023-05-14T05:21:33.758Z,87.48
2023-05-14T05:25:37.735Z,87.54
2023-05-14T05:29:40.287Z,87.55
2023-05-14T05:33:42.916Z,87.20
2023-05-14T05:37:46.065Z,86.92
2023-05-14T05:41:49.968Z,86.44
2023-05-14T05:45:52.546Z,86.19
2023-05-14T05:49:55.385Z,85.96
2023-05-14T05:53:58.812Z,85.33
2023-05-14T05:58:02.802Z,85.44
2023-05-14T06:02:05.933Z,86.80
2023-05-14T06:06:08.995Z,88.76
2023-05-14T06:10:11.945Z,81.45
2023-05-14T06:14:15.896Z,80.25
2023-05-14T06:18:18.492Z,80.11
2023-05-14T06:22:21.076Z,80.51
2023-05-14T06:26:24.354Z,79.33
2023-05-14T06:30:28.380Z,77.12
2023-05-14T06:34:31.227Z,74.83
2023-05-14T06:38:33.784Z,73.75
2023-05-14T06:42:36.342Z,73.25
2023-05-14T06:46:40.279Z,73.79
2023-05-14T06:50:42.846Z,73.57
2023-05-14T06:54:45.527Z,73.13
2023-05-14T06:58:48.116Z,72.82
2023-05-14T07:02:52.116Z,73.34
2023-05-14T07:06:54.797Z,72.77
2023-05-14T07:10:58.358Z,72.37
2023-05-14T07:15:00.922Z,70.67
2023-05-14T07:19:04.848Z,72.52
2023-05-14T07:23:07.439Z,70.11
2023-05-14T07:27:10.321Z,67.66
2023-05-14T07:31:12.891Z,68.19
2023-05-14T07:35:17.192Z,67.75
2023-05-14T07:39:19.850Z,66.71
2023-05-14T07:43:22.421Z,66.45
2023-05-14T07:47:25.066Z,67.05
2023-05-14T07:51:29.251Z,67.03
2023-05-14T07:55:31.852Z,66.40
2023-05-14T07:59:34.464Z,65.35
2023-05-14T08:03:37.409Z,59.84
2023-05-14T08:07:41.496Z,59.16
2023-05-14T08:11:44.162Z,57.95
2023-05-14T08:15:47.325Z,59.37
2023-05-14T08:19:49.932Z,61.52
2023-05-14T08:23:53.973Z,59.48
2023-05-14T08:27:56.537Z,60.17
2023-05-14T08:32:00.318Z,59.50
2023-05-14T08:36:07.342Z,59.06
2023-05-14T08:40:12.631Z,60.29
2023-05-14T08:44:19.379Z,56.23
2023-05-14T08:48:24.050Z,55.38
2023-05-14T08:52:26.901Z,56.27
2023-05-14T08:56:33.929Z,57.83
2023-05-14T09:00:37.294Z,55.86
2023-05-14T09:04:41.004Z,56.17
2023-05-14T09:08:43.636Z,55.61
2023-05-14T09:12:48.288Z,57.05
2023-05-14T09:16:52.363Z,59.29
2023-05-14T09:20:55.319Z,58.62
2023-05-14T09:25:05.910Z,54.75
2023-05-14T09:29:09.909Z,55.78
2023-05-14T09:33:12.526Z,57.20
2023-05-14T09:37:15.115Z,57.50
2023-05-14T09:41:17.751Z,54.04
2023-05-14T09:45:21.678Z,55.57
2023-05-14T09:49:25.475Z,55.27
2023-05-14T09:53:28.179Z,56.73
2023-05-14T09:57:30.925Z,55.45
2023-05-14T10:01:35.481Z,55.17
2023-05-14T10:05:41.009Z,52.38
2023-05-14T10:09:45.239Z,53.12
2023-05-14T10:13:52.969Z,52.79
2023-05-14T10:18:02.723Z,51.82
2023-05-14T10:22:08.070Z,51.59
2023-05-14T10:26:11.858Z,53.02
2023-05-14T10:30:15.251Z,51.41
2023-05-14T10:34:40.588Z,49.68
2023-05-14T10:38:43.202Z,50.18
2023-05-14T10:42:47.649Z,50.34
2023-05-14T10:46:50.250Z,49.69
2023-05-14T10:50:54.882Z,48.86
2023-05-14T10:55:02.884Z,53.13
2023-05-14T10:59:07.815Z,51.26
2023-05-14T11:03:13.112Z,50.67
2023-05-14T11:07:17.969Z,49.60
2023-05-14T11:11:20.655Z,48.75
2023-05-14T11:15:24.657Z,50.52
2023-05-14T11:19:28.245Z,47.49
2023-05-14T11:23:32.576Z,49.06
2023-05-14T11:27:36.649Z,45.59
2023-05-14T11:31:39.507Z,46.15
2023-05-14T11:35:45.298Z,47.64
2023-05-14T11:39:50.633Z,49.97
2023-05-14T11:43:53.252Z,47.82
2023-05-14T11:47:56.034Z,51.21
2023-05-14T11:51:59.388Z,52.00
2023-05-14T11:56:03.427Z,54.10
2023-05-14T12:00:10.260Z,55.25
2023-05-14T12:04:13.436Z,55.18
2023-05-14T12:08:22.242Z,56.70
2023-05-14T12:12:26.141Z,56.65
2023-05-14T12:16:33.979Z,57.61
2023-05-14T12:20:38.170Z,54.12
2023-05-14T12:24:41.159Z,52.29
2023-05-14T12:28:48.985Z,56.13
2023-05-14T12:32:52.877Z,53.77
2023-05-14T12:36:56.224Z,51.53
2023-05-14T12:40:58.807Z,53.31
2023-05-14T12:45:05.542Z,54.16
2023-05-14T12:49:08.193Z,54.36
2023-05-14T12:53:11.199Z,51.62
2023-05-14T12:57:13.827Z,53.27
2023-05-14T13:01:17.954Z,52.00
2023-05-14T13:05:20.768Z,53.62
2023-05-14T13:09:23.360Z,52.00
2023-05-14T13:13:26.267Z,50.31
2023-05-14T13:17:30.232Z,53.72
2023-05-14T13:21:32.865Z,52.41
2023-05-14T13:25:36.267Z,51.93
2023-05-14T13:29:38.853Z,51.06
2023-05-14T13:33:44.053Z,53.45
2023-05-14T13:37:46.877Z,54.47
2023-05-14T13:41:50.734Z,56.42
2023-05-14T13:45:53.370Z,60.02
2023-05-14T13:49:57.528Z,63.03
2023-05-14T13:54:00.205Z,64.46
2023-05-14T13:58:02.924Z,68.00
2023-05-14T14:02:06.336Z,71.75
2023-05-14T14:06:10.808Z,72.92
2023-05-14T14:10:13.677Z,75.92
2023-05-14T14:14:16.347Z,77.34
2023-05-14T14:18:18.934Z,77.08
2023-05-14T14:22:26.161Z,78.34
2023-05-14T14:26:30.847Z,79.20
2023-05-14T14:30:34.623Z,80.08
2023-05-14T14:34:37.258Z,81.55
2023-05-14T14:38:41.290Z,81.19
2023-05-14T14:42:45.199Z,80.34
2023-05-14T14:46:48.317Z,80.32
2023-05-14T14:50:51.931Z,81.61
2023-05-14T14:54:56.540Z,81.57
2023-05-14T14:58:59.138Z,81.31
2023-05-14T15:03:01.856Z,81.56
2023-05-14T15:07:04.612Z,81.88
2023-05-14T15:11:08.763Z,82.46
2023-05-14T15:15:11.838Z,82.47
2023-05-14T15:19:14.464Z,81.19
2023-05-14T15:23:17.295Z,80.97
2023-05-14T15:27:21.265Z,80.51
2023-05-14T15:31:24.040Z,80.35
2023-05-14T15:35:26.764Z,80.23
2023-05-14T15:39:32.145Z,80.48
2023-05-14T15:43:36.486Z,82.88
2023-05-14T15:47:39.140Z,82.72
2023-05-14T15:51:41.881Z,83.41
2023-05-14T15:55:44.892Z,83.22
2023-05-14T15:59:48.942Z,84.41
2023-05-14T16:03:51.752Z,84.73
2023-05-14T16:07:54.465Z,84.25
2023-05-14T16:11:57.305Z,85.17
2023-05-14T16:16:01.453Z,83.63
2023-05-14T16:20:05.287Z,83.07
2023-05-14T16:24:09.124Z,81.77
2023-05-14T16:28:11.744Z,83.11
2023-05-14T16:32:15.719Z,82.95
2023-05-14T16:36:19.632Z,82.15
2023-05-14T16:40:23.426Z,81.70
2023-05-14T16:44:26.288Z,80.91
2023-05-14T16:48:30.258Z,80.14
2023-05-14T16:52:32.972Z,79.34
2023-05-14T16:56:35.640Z,80.61
2023-05-14T17:00:38.311Z,78.74
2023-05-14T17:04:42.375Z,77.90
2023-05-14T17:08:45.093Z,79.83
2023-05-14T17:12:47.667Z,80.22
2023-05-14T17:16:50.407Z,77.89
2023-05-14T17:20:54.640Z,72.92
2023-05-14T17:24:57.244Z,70.82
2023-05-14T17:28:59.881Z,70.14
2023-05-14T17:33:02.536Z,71.38
2023-05-14T17:37:07.039Z,70.46
2023-05-14T17:41:09.726Z,71.92
2023-05-14T17:45:13.091Z,72.37
2023-05-14T17:49:16.088Z,72.27
2023-05-14T17:53:20.060Z,74.24
2023-05-14T17:57:22.787Z,75.25
2023-05-14T18:01:25.571Z,75.85
2023-05-14T18:05:30.086Z,75.72
2023-05-14T18:09:34.011Z,76.67
2023-05-14T18:13:36.634Z,76.19
2023-05-14T18:17:40.180Z,76.75
2023-05-14T18:21:44.144Z,76.75
2023-05-14T18:25:48.808Z,76.02
2023-05-14T18:29:51.917Z,76.41
2023-05-14T18:33:54.510Z,75.76
2023-05-14T18:37:57.190Z,76.39
2023-05-14T18:42:01.137Z,76.53
2023-05-14T18:46:03.890Z,76.49
2023-05-14T18:50:08.226Z,77.07
2023-05-14T18:54:10.842Z,79.74
2023-05-14T18:58:15.331Z,80.93
2023-05-14T19:02:18.118Z,82.72
2023-05-14T19:06:20.768Z,83.51
2023-05-14T19:10:24.053Z,84.41
2023-05-14T19:14:28.060Z,85.33
2023-05-14T19:18:31.036Z,86.73
2023-05-14T19:22:33.830Z,86.91
2023-05-14T19:26:36.452Z,86.87
2023-05-14T19:30:40.431Z,87.73
2023-05-14T19:34:43.120Z,88.46
2023-05-14T19:38:45.832Z,89.02
2023-05-14T19:42:48.412Z,89.31
2023-05-14T19:46:53.145Z,90.12
2023-05-14T19:50:56.310Z,90.56
2023-05-14T19:54:59.246Z,90.20
2023-05-14T19:59:01.903Z,90.64
2023-05-14T20:03:06.418Z,91.14
2023-05-14T20:07:10.031Z,91.90
2023-05-14T20:11:12.677Z,92.44
2023-05-14T20:15:15.276Z,92.65
2023-05-14T20:19:21.432Z,93.01
2023-05-14T20:23:24.144Z,93.33
2023-05-14T20:27:26.819Z,93.23
2023-05-14T20:31:29.454Z,93.48
2023-05-14T20:35:33.554Z,93.37
2023-05-14T20:39:36.412Z,93.18
2023-05-14T20:43:39.079Z,92.25
2023-05-14T20:47:41.714Z,92.87
2023-05-14T20:51:45.756Z,93.11
2023-05-14T20:55:48.560Z,93.11
2023-05-14T20:59:51.200Z,93.07
2023-05-14T21:03:53.927Z,92.47
2023-05-14T21:07:58.041Z,91.99
2023-05-14T21:12:00.675Z,91.59
2023-05-14T21:16:03.322Z,91.16
2023-05-14T21:20:06.999Z,91.30
2023-05-14T21:24:10.874Z,90.83
2023-05-14T21:28:13.442Z,90.73
2023-05-14T21:32:16.023Z,89.62
2023-05-14T21:36:18.993Z,89.42
2023-05-14T21:40:22.941Z,89.16
2023-05-14T21:44:25.479Z,89.36
2023-05-14T21:48:29.278Z,89.11
2023-05-14T21:52:31.935Z,89.38
2023-05-14T21:56:36.461Z,89.65
2023-05-14T22:00:39.967Z,89.47
2023-05-14T22:04:42.506Z,89.29
2023-05-14T22:08:45.241Z,89.10
2023-05-14T22:12:49.152Z,89.01
2023-05-14T22:16:52.075Z,89.04
2023-05-14T22:20:54.646Z,89.31
2023-05-14T22:24:57.437Z,89.79
2023-05-14T22:29:01.452Z,89.04
2023-05-14T22:33:04.096Z,89.39
2023-05-14T22:37:06.830Z,89.12
2023-05-14T22:41:09.349Z,88.03
2023-05-14T22:45:13.358Z,88.15
2023-05-14T22:49:15.983Z,87.78
2023-05-14T22:53:18.538Z,87.43
2023-05-14T22:57:21.156Z,87.54
2023-05-14T23:01:25.074Z,88.11
2023-05-14T23:05:27.678Z,88.47
2023-05-14T23:09:30.273Z,89.08
2023-05-14T23:13:33.186Z,89.46
2023-05-14T23:17:37.233Z,89.47
2023-05-14T23:21:39.872Z,89.29
2023-05-14T23:25:42.517Z,89.21
2023-05-14T23:29:45.115Z,89.21
2023-05-14T23:33:49.075Z,89.43
2023-05-14T23:37:51.765Z,89.62
2023-05-14T23:41:54.301Z,89.55
2023-05-14T23:45:57.126Z,89.32
2023-05-14T23:50:01.083Z,89.39
2023-05-14T23:54:03.918Z,89.30
2023-05-14T23:58:06.505Z,89.11
